KBFF/BFF METAR and TAF weather

Enter ICAO airport designator
Station Type Date Time Source
KBFF METAR 2020/12/01 20:53 UTC NOAA

KBFF 012053Z AUTO 33021G34KT 10SM BKN048 06/M07 A3011 RMK AO2 PK WND 32038/2018 SLP210 T00561067 53007


Station Type Date Time Source
KBFF Decoded METAR 2020/12/01 20:53 UTC NOAA

SCOTTSBLUFF HEILIG FIELD, NE, United States (KBFF) 41-52N 103-36W 1203M
Dec 01, 2020 - 03:53 PM EST / 2020.12.01 2053 UTC
Wind: from the NNW (330 degrees) at 24 MPH (21 KT) gusting to 39 MPH (34 KT):0
Visibility: 10 mile(s):0
Sky conditions: mostly cloudy
Temperature: 42.1 F (5.6 C)
Dew Point: 19.9 F (-6.7 C)
Relative Humidity: 40%
Pressure (altimeter): 30.11 in. Hg (1019 hPa)
Pressure tendency: 0.02 inches (0.7 hPa) higher than three hours ago
ob: KBFF 012053Z AUTO 33021G34KT 10SM BKN048 06/M07 A3011 RMK AO2 PK WND 32038/2018 SLP210 T00561067 53007
cycle: 21

Station Type Date Time Source
KBFF TAF 2020/12/01 18:39 UTC NOAA

TAF KBFF 011737Z 0118/0218 32024G34KT P6SM SCT040 BKN090
FM020300 32015G23KT P6SM SCT060 BKN110

Example: see airport list